Time;durP1;ratioP1;P1;durP2;ratioP2;P2;SDS_P1;SDS_P2;PMS_P1;PMS_P2;Temp;Humidity;BMP_temperature;BMP_pressure;BME280_temperature;BME280_humidity;BME280_pressure;Samples;Min_cycle;Max_cycle;Signal;HPM_P1;HPM_P2
2024/01/20 00:02:08;;;;;;;13.60;12.50;;;;;;;;;;4996114;28;20074;-79
2024/01/20 00:04:33;;;;;;;12.68;11.57;;;;;;;;;;4995208;28;20072;-78
2024/01/20 00:06:59;;;;;;;13.73;12.57;;;;;;;;;;5009520;28;20038;-79
2024/01/20 00:09:24;;;;;;;20.50;18.60;;;;;;;;;;5009904;28;20120;-80
2024/01/20 00:11:50;;;;;;;17.38;15.77;;;;;;;;;;5006718;28;20073;-78
2024/01/20 00:14:15;;;;;;;24.35;22.05;;;;;;;;;;4995374;28;20084;-81
2024/01/20 00:16:40;;;;;;;19.58;17.75;;;;;;;;;;5005146;28;20458;-82
2024/01/20 00:19:06;;;;;;;27.15;24.58;;;;;;;;;;5000068;28;20038;-81
2024/01/20 00:21:31;;;;;;;40.40;36.53;;;;;;;;;;5009957;28;20034;-84
2024/01/20 00:23:56;;;;;;;22.92;20.95;;;;;;;;;;4990650;28;20041;-81
2024/01/20 00:26:22;;;;;;;17.10;15.60;;;;;;;;;;4995336;28;20036;-81
2024/01/20 00:28:47;;;;;;;24.98;22.60;;;;;;;;;;5011587;28;20108;-81
2024/01/20 00:31:12;;;;;;;20.27;18.38;;;;;;;;;;5010531;28;20048;-81
2024/01/20 00:33:38;;;;;;;18.25;16.55;;;;;;;;;;5103472;28;20047;-81
2024/01/20 00:36:03;;;;;;;16.27;12.85;;;;;;;;;;5115414;27;20106;-82
2024/01/20 00:38:28;;;;;;;18.83;17.13;;;;;;;;;;5097644;28;20110;-81
2024/01/20 00:40:54;;;;;;;12.10;11.10;;;;;;;;;;5104398;28;20026;-78
2024/01/20 00:43:19;;;;;;;12.25;11.23;;;;;;;;;;5097859;28;20027;-81
2024/01/20 00:45:45;;;;;;;13.05;12.00;;;;;;;;;;5094151;28;20035;-79
2024/01/20 00:48:11;;;;;;;17.98;16.48;;;;;;;;;;5098243;28;20434;-81
2024/01/20 00:50:36;;;;;;;17.00;15.50;;;;;;;;;;5114426;28;20023;-80
2024/01/20 00:53:01;;;;;;;17.05;15.60;;;;;;;;;;5100074;28;20323;-78
2024/01/20 00:55:27;;;;;;;17.65;16.15;;;;;;;;;;5098196;28;20030;-81
2024/01/20 00:57:52;;;;;;;20.02;18.33;;;;;;;;;;5077313;28;20027;-80
2024/01/20 01:00:17;;;;;;;37.70;34.03;;;;;;;;;;5082998;28;20031;-80
2024/01/20 01:02:43;;;;;;;22.63;20.63;;;;;;;;;;5092288;28;20032;-79
2024/01/20 01:05:08;;;;;;;22.63;20.50;;;;;;;;;;5086778;28;20344;-79
2024/01/20 01:07:34;;;;;;;24.10;21.83;;;;;;;;;;5083986;28;20028;-78
2024/01/20 01:09:59;;;;;;;23.38;21.15;;;;;;;;;;5086475;28;20016;-77
2024/01/20 01:12:25;;;;;;;25.92;23.52;;;;;;;;;;5090366;28;20505;-80
2024/01/20 01:14:50;;;;;;;29.13;26.33;;;;;;;;;;5097640;28;20446;-81
2024/01/20 01:17:19;;;;;;;42.70;38.63;;;;;;;;;;5096505;28;20054;-78
2024/01/20 01:19:45;;;;;;;31.95;28.77;;;;;;;;;;5093102;28;20020;-81
2024/01/20 01:22:10;;;;;;;26.92;24.42;;;;;;;;;;5096529;28;20461;-79
2024/01/20 01:24:37;;;;;;;58.50;52.90;;;;;;;;;;5095809;28;20027;-80
2024/01/20 01:27:03;;;;;;;35.92;32.42;;;;;;;;;;5095500;28;20425;-74
2024/01/20 01:29:28;;;;;;;22.20;20.20;;;;;;;;;;5096591;28;20394;-73
2024/01/20 01:31:53;;;;;;;17.23;15.82;;;;;;;;;;5093557;28;20139;-73
2024/01/20 01:34:19;;;;;;;19.63;17.83;;;;;;;;;;5075868;28;20039;-72
2024/01/20 01:36:44;;;;;;;13.07;11.98;;;;;;;;;;5068986;28;20032;-73
2024/01/20 01:39:10;;;;;;;24.40;22.13;;;;;;;;;;5063695;28;20084;-74
2024/01/20 01:41:35;;;;;;;13.95;12.82;;;;;;;;;;5063666;28;20419;-73
2024/01/20 01:44:01;;;;;;;32.92;29.73;;;;;;;;;;5063930;28;20427;-75
2024/01/20 01:46:27;;;;;;;18.67;16.90;;;;;;;;;;5072774;28;20039;-75
2024/01/20 01:48:52;;;;;;;18.70;16.90;;;;;;;;;;5075669;28;20465;-72
2024/01/20 01:51:17;;;;;;;19.63;17.83;;;;;;;;;;5074725;28;20032;-73
2024/01/20 01:53:43;;;;;;;24.77;22.63;;;;;;;;;;5060865;28;20028;-73
2024/01/20 01:56:09;;;;;;;23.30;21.17;;;;;;;;;;5076624;28;20063;-75
2024/01/20 01:58:34;;;;;;;22.10;20.08;;;;;;;;;;5080526;28;20060;-77
2024/01/20 02:01:00;;;;;;;23.55;21.45;;;;;;;;;;5080765;28;20051;-75
2024/01/20 02:03:25;;;;;;;21.67;19.77;;;;;;;;;;5074376;28;20036;-75
2024/01/20 02:05:51;;;;;;;23.00;20.92;;;;;;;;;;5073852;28;20039;-74
2024/01/20 02:08:16;;;;;;;29.13;26.50;;;;;;;;;;5079991;28;20280;-73
2024/01/20 02:10:43;;;;;;;18.42;16.83;;;;;;;;;;5078645;28;20020;-75
2024/01/20 02:13:10;;;;;;;21.55;19.48;;;;;;;;;;5079174;28;20024;-74
2024/01/20 02:15:35;;;;;;;22.25;20.27;;;;;;;;;;5081307;28;20031;-74
2024/01/20 02:18:01;;;;;;;22.48;20.48;;;;;;;;;;5077619;28;20024;-74
2024/01/20 02:20:26;;;;;;;16.77;15.27;;;;;;;;;;5066361;28;20447;-72
2024/01/20 02:22:52;;;;;;;18.98;17.27;;;;;;;;;;5071368;28;20074;-73
2024/01/20 02:25:17;;;;;;;17.05;15.57;;;;;;;;;;5077966;28;20032;-72
2024/01/20 02:27:42;;;;;;;15.23;13.90;;;;;;;;;;5077861;28;20071;-74
2024/01/20 02:30:08;;;;;;;13.55;12.35;;;;;;;;;;5078346;28;20020;-74
2024/01/20 02:32:33;;;;;;;15.60;14.20;;;;;;;;;;5078596;28;20052;-75
2024/01/20 02:34:59;;;;;;;16.80;15.30;;;;;;;;;;5070394;28;20455;-73
2024/01/20 02:37:24;;;;;;;18.55;16.90;;;;;;;;;;5074034;28;20024;-72
2024/01/20 02:39:50;;;;;;;22.55;20.45;;;;;;;;;;5079937;28;20063;-75
2024/01/20 02:42:15;;;;;;;22.80;20.63;;;;;;;;;;5065473;28;20063;-73
2024/01/20 02:44:41;;;;;;;27.75;25.25;;;;;;;;;;5069679;28;20093;-75
2024/01/20 02:47:07;;;;;;;26.65;23.90;;;;;;;;;;5079223;28;20034;-73
2024/01/20 02:49:33;;;;;;;27.77;24.92;;;;;;;;;;5058519;28;20563;-74
2024/01/20 02:51:58;;;;;;;18.60;16.83;;;;;;;;;;5080300;28;20450;-76
2024/01/20 02:54:24;;;;;;;19.38;17.40;;;;;;;;;;5079060;28;20028;-73
2024/01/20 02:56:49;;;;;;;16.77;15.18;;;;;;;;;;5078875;28;20178;-71
2024/01/20 02:59:14;;;;;;;31.08;27.23;;;;;;;;;;5076296;28;20063;-77
2024/01/20 03:01:40;;;;;;;24.27;21.75;;;;;;;;;;5077337;28;20048;-74
2024/01/20 03:04:05;;;;;;;15.93;14.43;;;;;;;;;;5066332;28;20079;-72
2024/01/20 03:06:31;;;;;;;17.17;15.48;;;;;;;;;;5067366;28;20035;-73
2024/01/20 03:08:56;;;;;;;24.88;22.48;;;;;;;;;;5066008;28;20035;-74
2024/01/20 03:11:22;;;;;;;14.38;13.07;;;;;;;;;;5065165;28;20032;-72
2024/01/20 03:13:47;;;;;;;25.25;22.67;;;;;;;;;;5077656;28;20452;-72
2024/01/20 03:16:12;;;;;;;22.77;20.63;;;;;;;;;;5079362;28;20502;-74
2024/01/20 03:18:38;;;;;;;17.38;15.68;;;;;;;;;;5076372;28;20023;-74
2024/01/20 03:21:04;;;;;;;15.20;13.80;;;;;;;;;;5070448;28;20024;-73
2024/01/20 03:23:29;;;;;;;17.15;15.57;;;;;;;;;;5074605;28;20418;-74
2024/01/20 03:25:54;;;;;;;14.60;13.30;;;;;;;;;;5069007;28;20024;-72
2024/01/20 03:28:20;;;;;;;13.60;12.40;;;;;;;;;;5079880;28;20028;-72
2024/01/20 03:30:46;;;;;;;13.52;12.32;;;;;;;;;;5078306;28;20024;-73
2024/01/20 03:33:11;;;;;;;13.65;12.35;;;;;;;;;;5078947;28;20059;-76
2024/01/20 03:35:36;;;;;;;13.90;12.60;;;;;;;;;;5076986;28;20028;-74
2024/01/20 03:38:02;;;;;;;15.05;13.73;;;;;;;;;;5077591;28;20024;-74
2024/01/20 03:40:27;;;;;;;14.57;13.27;;;;;;;;;;5048753;28;20024;-77
2024/01/20 03:42:52;;;;;;;15.35;13.95;;;;;;;;;;5077915;28;20462;-75
2024/01/20 03:45:18;;;;;;;13.23;12.02;;;;;;;;;;5078979;28;20032;-74
2024/01/20 03:47:43;;;;;;;13.70;12.50;;;;;;;;;;5067403;28;20059;-75
2024/01/20 03:50:09;;;;;;;13.05;11.85;;;;;;;;;;5074830;28;20059;-73
2024/01/20 03:52:35;;;;;;;12.55;11.43;;;;;;;;;;5060059;28;20043;-73
2024/01/20 03:55:00;;;;;;;14.85;13.52;;;;;;;;;;5077010;28;20020;-75
2024/01/20 03:57:25;;;;;;;13.27;12.07;;;;;;;;;;5075846;28;20024;-75
2024/01/20 03:59:51;;;;;;;18.02;16.17;;;;;;;;;;5078692;28;20020;-75
2024/01/20 04:02:16;;;;;;;31.20;24.98;;;;;;;;;;5078371;28;20031;-76
2024/01/20 04:04:41;;;;;;;35.53;26.58;;;;;;;;;;5076795;28;20402;-74
2024/01/20 04:07:07;;;;;;;33.25;25.80;;;;;;;;;;5066987;28;20355;-74
2024/01/20 04:09:32;;;;;;;48.85;36.60;;;;;;;;;;5075429;28;20059;-72
2024/01/20 04:11:57;;;;;;;36.03;29.33;;;;;;;;;;5075886;28;20081;-76
2024/01/20 04:14:23;;;;;;;31.25;27.48;;;;;;;;;;5078321;28;20023;-72
2024/01/20 04:16:48;;;;;;;27.55;24.70;;;;;;;;;;5060208;28;20024;-73
2024/01/20 04:19:13;;;;;;;25.45;22.83;;;;;;;;;;5076964;28;20031;-73
2024/01/20 04:21:39;;;;;;;28.15;25.38;;;;;;;;;;5050358;28;20039;-74
2024/01/20 04:24:05;;;;;;;24.23;22.00;;;;;;;;;;5078637;28;20112;-76
2024/01/20 04:26:30;;;;;;;26.08;23.50;;;;;;;;;;5078495;28;20016;-74
2024/01/20 04:28:55;;;;;;;14.73;13.43;;;;;;;;;;5077918;28;20032;-73
2024/01/20 04:31:21;;;;;;;13.02;11.73;;;;;;;;;;5078665;28;20028;-73
2024/01/20 04:33:46;;;;;;;26.85;24.35;;;;;;;;;;5075700;28;20043;-73
2024/01/20 04:36:11;;;;;;;26.73;24.15;;;;;;;;;;5076534;28;20061;-73
2024/01/20 04:38:37;;;;;;;21.60;19.48;;;;;;;;;;5077165;28;20343;-72
2024/01/20 04:41:02;;;;;;;20.75;18.80;;;;;;;;;;5073546;28;20016;-73
2024/01/20 04:43:28;;;;;;;14.57;13.18;;;;;;;;;;5069230;28;20043;-73
2024/01/20 04:45:54;;;;;;;13.95;12.75;;;;;;;;;;5078140;28;20078;-75
2024/01/20 04:48:19;;;;;;;12.73;11.52;;;;;;;;;;5077258;28;20065;-77
2024/01/20 04:50:45;;;;;;;12.40;11.25;;;;;;;;;;5071289;28;20043;-73
2024/01/20 04:53:10;;;;;;;15.13;13.63;;;;;;;;;;5070819;28;20035;-72
2024/01/20 04:55:36;;;;;;;16.30;14.70;;;;;;;;;;5076926;28;20031;-73
2024/01/20 04:58:01;;;;;;;23.63;21.33;;;;;;;;;;5075903;28;20028;-71
2024/01/20 05:00:26;;;;;;;18.98;17.13;;;;;;;;;;5075830;28;20382;-75
2024/01/20 05:02:52;;;;;;;15.18;13.70;;;;;;;;;;5056892;28;20044;-73
2024/01/20 05:05:17;;;;;;;13.10;11.88;;;;;;;;;;5063787;28;20036;-73
2024/01/20 05:07:43;;;;;;;13.85;12.55;;;;;;;;;;5068263;28;20149;-73
2024/01/20 05:10:08;;;;;;;14.05;12.73;;;;;;;;;;5072128;28;20060;-73
2024/01/20 05:12:33;;;;;;;18.30;16.55;;;;;;;;;;5048917;28;20176;-75
2024/01/20 05:14:59;;;;;;;29.67;26.67;;;;;;;;;;5077482;28;20036;-73
2024/01/20 05:17:24;;;;;;;19.67;17.77;;;;;;;;;;5048370;28;20451;-72
2024/01/20 05:19:49;;;;;;;17.15;15.52;;;;;;;;;;5054457;28;20027;-73
2024/01/20 05:22:18;;;;;;;19.38;17.48;;;;;;;;;;5074603;28;20027;-72
2024/01/20 05:24:43;;;;;;;16.27;14.68;;;;;;;;;;5074556;28;20462;-73
2024/01/20 05:27:10;;;;;;;33.28;29.80;;;;;;;;;;5076591;28;20024;-74
2024/01/20 05:29:35;;;;;;;14.25;12.85;;;;;;;;;;5075039;28;20355;-72
2024/01/20 05:32:01;;;;;;;12.60;11.40;;;;;;;;;;5080474;28;20047;-73
2024/01/20 05:34:26;;;;;;;11.15;10.00;;;;;;;;;;5078730;28;20447;-73
2024/01/20 05:36:52;;;;;;;13.80;12.50;;;;;;;;;;5059815;28;20035;-74
2024/01/20 05:39:17;;;;;;;47.35;41.55;;;;;;;;;;5072525;28;20029;-77
2024/01/20 05:41:42;;;;;;;68.78;53.17;;;;;;;;;;5063061;28;20044;-73
2024/01/20 05:44:08;;;;;;;65.15;53.75;;;;;;;;;;5046366;28;20028;-73
2024/01/20 05:46:33;;;;;;;40.38;33.92;;;;;;;;;;5066494;28;20028;-73
2024/01/20 05:48:59;;;;;;;71.82;47.72;;;;;;;;;;5062422;28;20037;-73
2024/01/20 05:51:24;;;;;;;30.15;22.65;;;;;;;;;;5063241;28;20016;-76
2024/01/20 05:53:50;;;;;;;15.23;13.45;;;;;;;;;;5068019;28;20025;-72
2024/01/20 05:56:15;;;;;;;26.73;23.50;;;;;;;;;;5069589;28;20058;-74
2024/01/20 05:58:40;;;;;;;41.10;33.42;;;;;;;;;;5062508;28;20340;-74
2024/01/20 06:01:09;;;;;;;54.38;38.58;;;;;;;;;;5050358;28;20033;-75
2024/01/20 06:03:34;;;;;;;33.17;24.23;;;;;;;;;;5030958;28;20020;-75
2024/01/20 06:05:59;;;;;;;33.47;25.45;;;;;;;;;;5051134;28;20032;-72
2024/01/20 06:08:25;;;;;;;32.05;28.70;;;;;;;;;;5056286;28;20028;-72
2024/01/20 06:10:51;;;;;;;30.42;27.23;;;;;;;;;;5065302;28;20028;-73
2024/01/20 06:13:16;;;;;;;24.98;21.05;;;;;;;;;;5065563;28;20089;-74
2024/01/20 06:15:42;;;;;;;34.00;30.52;;;;;;;;;;5064659;28;20101;-76
2024/01/20 06:18:07;;;;;;;37.55;33.45;;;;;;;;;;5065906;28;20024;-72
2024/01/20 06:20:32;;;;;;;30.58;27.30;;;;;;;;;;5064280;28;20090;-74
2024/01/20 06:26:11;;;;;;;28.13;24.50;;;;;;;;;;5013765;28;20049;-73
2024/01/20 06:28:36;;;;;;;26.75;24.05;;;;;;;;;;5015188;28;20029;-74
2024/01/20 06:31:02;;;;;;;29.02;26.08;;;;;;;;;;5013421;28;20033;-74
2024/01/20 06:33:28;;;;;;;24.92;22.50;;;;;;;;;;5048188;28;21033;-72
2024/01/20 06:35:53;;;;;;;23.30;20.95;;;;;;;;;;5041805;28;20036;-75
2024/01/20 06:38:19;;;;;;;25.92;23.33;;;;;;;;;;5056151;28;20036;-73
2024/01/20 06:40:44;;;;;;;28.27;25.10;;;;;;;;;;5061888;28;20044;-74
2024/01/20 06:43:09;;;;;;;38.28;32.42;;;;;;;;;;5062013;28;20588;-73
2024/01/20 06:45:35;;;;;;;45.45;38.70;;;;;;;;;;5062706;28;20681;-77
2024/01/20 06:48:01;;;;;;;37.05;31.63;;;;;;;;;;5059758;28;20027;-75
2024/01/20 06:50:27;;;;;;;42.55;37.25;;;;;;;;;;5067157;28;20055;-75
2024/01/20 06:52:53;;;;;;;55.17;41.55;;;;;;;;;;5064172;28;20048;-78
2024/01/20 06:55:18;;;;;;;98.53;71.53;;;;;;;;;;5068534;28;20459;-78
2024/01/20 06:57:44;;;;;;;37.33;32.72;;;;;;;;;;5093929;28;20031;-77
2024/01/20 07:00:09;;;;;;;37.65;30.80;;;;;;;;;;5099294;28;20039;-79
2024/01/20 07:02:35;;;;;;;50.00;39.08;;;;;;;;;;5094253;28;20035;-78
2024/01/20 07:05:00;;;;;;;53.28;45.78;;;;;;;;;;5093606;28;20028;-77
2024/01/20 07:07:25;;;;;;;82.70;65.25;;;;;;;;;;5090491;28;20152;-74
2024/01/20 07:09:51;;;;;;;39.53;34.70;;;;;;;;;;5095078;28;20039;-74
2024/01/20 07:12:16;;;;;;;51.85;41.80;;;;;;;;;;5094696;28;20493;-74
2024/01/20 07:14:44;;;;;;;119.65;95.78;;;;;;;;;;5093330;28;20403;-75
2024/01/20 07:17:10;;;;;;;107.78;86.03;;;;;;;;;;5093428;28;20028;-73
2024/01/20 07:19:35;;;;;;;59.25;52.88;;;;;;;;;;5088404;28;20378;-75
2024/01/20 07:22:01;;;;;;;67.90;60.50;;;;;;;;;;5090180;28;20035;-75
2024/01/20 07:24:27;;;;;;;87.80;77.93;;;;;;;;;;5094218;28;20082;-73
2024/01/20 07:26:53;;;;;;;56.17;50.10;;;;;;;;;;5094284;28;20016;-75
2024/01/20 07:29:18;;;;;;;53.55;47.75;;;;;;;;;;5091612;28;20031;-75
2024/01/20 07:31:44;;;;;;;35.25;30.95;;;;;;;;;;5090856;28;20044;-73
2024/01/20 07:34:09;;;;;;;43.78;38.40;;;;;;;;;;5076912;28;20036;-73
2024/01/20 07:36:35;;;;;;;42.53;37.90;;;;;;;;;;5065487;28;20032;-79
2024/01/20 07:39:00;;;;;;;43.78;39.10;;;;;;;;;;5054564;28;20052;-72
2024/01/20 07:41:26;;;;;;;37.42;32.47;;;;;;;;;;5070439;28;20099;-73
2024/01/20 07:43:51;;;;;;;51.20;45.25;;;;;;;;;;5069252;28;20047;-75
2024/01/20 07:46:16;;;;;;;31.90;27.13;;;;;;;;;;5075246;28;20510;-72
2024/01/20 07:48:43;;;;;;;39.97;33.58;;;;;;;;;;5072838;28;20389;-72
2024/01/20 07:51:09;;;;;;;49.97;42.70;;;;;;;;;;5075162;28;20046;-74
2024/01/20 07:53:34;;;;;;;45.95;39.00;;;;;;;;;;5074774;28;20803;-74
2024/01/20 07:56:00;;;;;;;62.58;55.80;;;;;;;;;;5072288;28;20031;-74
2024/01/20 07:58:25;;;;;;;42.72;36.78;;;;;;;;;;5075048;28;20050;-73
2024/01/20 08:00:51;;;;;;;35.38;31.58;;;;;;;;;;5072881;28;20037;-72
2024/01/20 08:03:16;;;;;;;40.13;33.20;;;;;;;;;;5073175;28;20038;-74
2024/01/20 08:05:41;;;;;;;51.35;43.55;;;;;;;;;;5053611;28;20078;-73
2024/01/20 08:08:07;;;;;;;42.40;37.78;;;;;;;;;;5050321;28;20033;-74
2024/01/20 08:10:32;;;;;;;48.17;42.78;;;;;;;;;;5055233;28;20032;-75
2024/01/20 08:12:57;;;;;;;144.43;89.03;;;;;;;;;;5069335;28;20031;-72
2024/01/20 08:15:23;;;;;;;76.50;56.20;;;;;;;;;;5076019;28;20020;-73
2024/01/20 08:17:49;;;;;;;64.95;54.33;;;;;;;;;;5073553;28;20032;-76
2024/01/20 08:20:14;;;;;;;80.20;66.85;;;;;;;;;;5057081;28;20031;-75
2024/01/20 08:22:40;;;;;;;62.75;51.85;;;;;;;;;;5079557;28;20716;-73
2024/01/20 08:25:05;;;;;;;50.85;44.97;;;;;;;;;;5076014;28;20034;-75
2024/01/20 08:27:31;;;;;;;61.60;53.40;;;;;;;;;;5072075;28;20024;-73
2024/01/20 08:29:56;;;;;;;72.32;63.75;;;;;;;;;;5075491;28;20028;-77
2024/01/20 08:32:22;;;;;;;49.72;43.97;;;;;;;;;;5071111;28;20464;-75
2024/01/20 08:34:47;;;;;;;43.47;38.78;;;;;;;;;;5070696;28;20043;-76
2024/01/20 08:37:13;;;;;;;38.92;34.85;;;;;;;;;;5072108;28;20027;-77
2024/01/20 08:39:38;;;;;;;33.90;30.05;;;;;;;;;;5067092;28;20461;-77
2024/01/20 08:42:04;;;;;;;42.03;37.40;;;;;;;;;;5068013;28;20032;-78
2024/01/20 08:44:30;;;;;;;45.15;38.95;;;;;;;;;;5075708;28;20031;-79
2024/01/20 08:46:55;;;;;;;46.25;40.50;;;;;;;;;;5074152;28;20394;-77
2024/01/20 08:49:22;;;;;;;85.57;73.47;;;;;;;;;;5075212;28;20028;-79
2024/01/20 08:51:47;;;;;;;95.15;69.32;;;;;;;;;;5075708;28;20089;-81
2024/01/20 08:54:12;;;;;;;94.20;74.10;;;;;;;;;;5078477;28;20446;-79
2024/01/20 08:56:38;;;;;;;67.90;54.47;;;;;;;;;;5074727;28;20032;-79
2024/01/20 08:59:04;;;;;;;117.80;96.43;;;;;;;;;;5071755;28;20035;-80
2024/01/20 09:01:29;;;;;;;127.13;102.50;;;;;;;;;;5068384;28;20020;-80
2024/01/20 09:03:55;;;;;;;147.38;117.78;;;;;;;;;;5074964;28;20457;-80
2024/01/20 09:06:20;;;;;;;98.07;81.07;;;;;;;;;;5073779;28;20028;-79
2024/01/20 09:08:45;;;;;;;92.82;77.28;;;;;;;;;;5072244;28;20034;-79
2024/01/20 09:11:11;;;;;;;81.13;64.80;;;;;;;;;;5070324;28;20482;-79
2024/01/20 09:13:36;;;;;;;112.72;86.32;;;;;;;;;;5072769;28;20033;-78
2024/01/20 09:16:02;;;;;;;65.40;54.85;;;;;;;;;;5074036;28;20028;-77
2024/01/20 09:18:27;;;;;;;62.05;48.00;;;;;;;;;;5074371;28;20038;-76
2024/01/20 09:20:53;;;;;;;69.60;54.33;;;;;;;;;;5070471;28;20053;-77
2024/01/20 09:23:18;;;;;;;69.78;54.88;;;;;;;;;;5058629;28;20111;-78
2024/01/20 09:25:44;;;;;;;76.72;58.47;;;;;;;;;;5063963;28;20063;-78
2024/01/20 09:28:10;;;;;;;80.43;61.15;;;;;;;;;;5076818;28;20109;-78
2024/01/20 09:30:35;;;;;;;85.75;63.75;;;;;;;;;;5058626;28;20020;-77
2024/01/20 09:33:02;;;;;;;115.95;80.15;;;;;;;;;;5069855;28;20135;-80
2024/01/20 09:35:27;;;;;;;85.10;62.10;;;;;;;;;;5069630;28;20024;-79
2024/01/20 09:37:52;;;;;;;103.28;80.72;;;;;;;;;;5069399;28;20035;-81
2024/01/20 09:40:18;;;;;;;71.00;53.10;;;;;;;;;;5078445;28;20393;-80
2024/01/20 09:42:43;;;;;;;79.03;56.40;;;;;;;;;;5075108;28;20039;-79
2024/01/20 09:45:09;;;;;;;76.75;61.78;;;;;;;;;;5077661;28;20051;-80
2024/01/20 09:47:35;;;;;;;133.55;91.43;;;;;;;;;;5076530;28;20156;-80
2024/01/20 09:50:00;;;;;;;149.73;106.60;;;;;;;;;;5078458;28;20355;-79
2024/01/20 09:52:27;;;;;;;85.28;67.05;;;;;;;;;;5077713;28;20028;-79
2024/01/20 09:54:58;;;;;;;68.95;55.88;;;;;;;;;;5078597;28;20024;-78
2024/01/20 09:57:24;;;;;;;92.32;73.82;;;;;;;;;;5078268;28;20024;-78
2024/01/20 09:59:51;;;;;;;91.95;76.82;;;;;;;;;;5078923;28;20035;-80
2024/01/20 10:02:17;;;;;;;78.68;70.05;;;;;;;;;;5076427;28;20024;-79
2024/01/20 10:04:44;;;;;;;60.75;54.10;;;;;;;;;;5079700;28;20455;-78
2024/01/20 10:07:09;;;;;;;90.43;82.10;;;;;;;;;;5078584;28;20343;-79
2024/01/20 10:09:35;;;;;;;61.35;55.38;;;;;;;;;;5076043;28;20024;-79
2024/01/20 10:12:00;;;;;;;57.72;45.47;;;;;;;;;;5072750;28;20028;-80
2024/01/20 10:14:25;;;;;;;62.65;47.45;;;;;;;;;;5060368;28;20032;-80
2024/01/20 10:16:51;;;;;;;42.70;37.47;;;;;;;;;;5054301;28;20123;-82
2024/01/20 10:19:16;;;;;;;55.00;49.17;;;;;;;;;;5058343;28;20027;-78
2024/01/20 10:21:42;;;;;;;47.67;42.58;;;;;;;;;;5062671;28;20340;-79
2024/01/20 10:24:08;;;;;;;68.55;61.97;;;;;;;;;;5046203;28;20032;-76
2024/01/20 10:26:43;;;;;;;109.05;94.90;;;;;;;;;;5057115;28;20108;-79
2024/01/20 10:29:09;;;;;;;165.48;123.95;;;;;;;;;;5037140;28;20099;-79
2024/01/20 10:31:35;;;;;;;159.07;125.00;;;;;;;;;;5053097;28;20399;-84
2024/01/20 10:34:01;;;;;;;306.10;187.35;;;;;;;;;;5048025;28;20033;-81
2024/01/20 10:36:27;;;;;;;324.40;205.15;;;;;;;;;;5053209;28;20021;-82
2024/01/20 10:38:53;;;;;;;488.40;303.60;;;;;;;;;;5049798;28;20032;-83
2024/01/20 10:41:21;;;;;;;153.27;101.38;;;;;;;;;;5048668;28;20925;-84
2024/01/20 10:43:50;;;;;;;39.90;34.10;;;;;;;;;;5055422;28;20077;-82
2024/01/20 10:46:21;;;;;;;35.00;31.30;;;;;;;;;;5046241;28;20033;-80
2024/01/20 10:48:48;;;;;;;95.25;85.05;;;;;;;;;;5030560;28;20041;-82
2024/01/20 10:51:15;;;;;;;115.50;102.88;;;;;;;;;;5061146;28;20027;-80
2024/01/20 10:53:41;;;;;;;68.03;60.88;;;;;;;;;;5051070;28;20060;-76
2024/01/20 10:56:07;;;;;;;49.42;44.33;;;;;;;;;;5059670;28;20055;-80
2024/01/20 10:58:41;;;;;;;31.50;28.20;;;;;;;;;;5056039;28;20086;-78
2024/01/20 11:01:07;;;;;;;60.60;54.30;;;;;;;;;;5039872;28;20028;-79
2024/01/20 11:03:32;;;;;;;57.88;51.33;;;;;;;;;;5048910;28;20024;-76
2024/01/20 11:05:58;;;;;;;68.57;60.55;;;;;;;;;;5060502;28;20027;-78
2024/01/20 11:08:24;;;;;;;60.20;52.20;;;;;;;;;;5043161;28;20407;-78
2024/01/20 11:10:51;;;;;;;48.25;42.97;;;;;;;;;;5060397;28;20093;-78
2024/01/20 11:13:16;;;;;;;40.47;36.17;;;;;;;;;;5058338;28;20032;-76
2024/01/20 11:15:47;;;;;;;33.95;30.55;;;;;;;;;;5064228;28;20016;-77
2024/01/20 11:18:20;;;;;;;63.25;56.72;;;;;;;;;;5066372;28;20111;-74
2024/01/20 11:20:58;;;;;;;59.00;53.00;;;;;;;;;;5067337;28;20029;-78
2024/01/20 11:23:24;;;;;;;63.28;56.80;;;;;;;;;;5061593;28;20444;-74
2024/01/20 11:25:49;;;;;;;86.65;77.50;;;;;;;;;;5073483;28;20104;-78
2024/01/20 11:28:25;;;;;;;45.08;40.67;;;;;;;;;;5058170;28;20118;-78
2024/01/20 11:30:51;;;;;;;39.45;35.60;;;;;;;;;;5058957;28;20146;-78
2024/01/20 11:33:16;;;;;;;35.88;32.25;;;;;;;;;;5070894;28;20147;-80
2024/01/20 11:35:42;;;;;;;27.42;24.60;;;;;;;;;;5064147;28;20038;-78
2024/01/20 11:38:07;;;;;;;28.10;25.20;;;;;;;;;;5042855;28;20024;-83
2024/01/20 11:40:33;;;;;;;29.38;26.30;;;;;;;;;;5073216;28;20061;-84
2024/01/20 11:43:05;;;;;;;32.20;28.33;;;;;;;;;;5076029;28;20112;-83
2024/01/20 11:45:31;;;;;;;31.05;27.95;;;;;;;;;;5069280;28;20533;-87
2024/01/20 11:47:56;;;;;;;58.17;47.33;;;;;;;;;;5049617;28;20024;-81
2024/01/20 11:50:22;;;;;;;45.80;41.00;;;;;;;;;;5057460;28;20131;-84
2024/01/20 11:52:47;;;;;;;69.22;62.05;;;;;;;;;;5078195;28;20498;-86
2024/01/20 11:55:13;;;;;;;58.75;52.47;;;;;;;;;;5074959;28;20090;-82
2024/01/20 11:57:38;;;;;;;103.43;92.20;;;;;;;;;;5044956;28;20027;-84
2024/01/20 12:00:05;;;;;;;88.53;77.80;;;;;;;;;;5075640;28;20044;-80
2024/01/20 12:02:30;;;;;;;99.65;88.70;;;;;;;;;;5061281;28;20439;-80
2024/01/20 12:04:55;;;;;;;80.00;71.40;;;;;;;;;;5081036;28;20090;-86
2024/01/20 12:07:21;;;;;;;60.58;54.00;;;;;;;;;;5079402;28;20081;-83
2024/01/20 12:09:47;;;;;;;78.95;70.65;;;;;;;;;;5078914;28;20043;-86
2024/01/20 12:12:16;;;;;;;82.93;74.32;;;;;;;;;;5073951;28;20028;-86
2024/01/20 12:14:44;;;;;;;63.40;57.28;;;;;;;;;;5076543;28;20097;-84
2024/01/20 12:17:10;;;;;;;107.38;96.43;;;;;;;;;;5074755;28;20019;-87
2024/01/20 12:19:38;;;;;;;26.08;23.40;;;;;;;;;;5078880;28;20348;-84
2024/01/20 12:22:05;;;;;;;31.08;25.58;;;;;;;;;;5077428;28;20085;-86
2024/01/20 12:24:31;;;;;;;26.52;22.25;;;;;;;;;;5076702;28;20026;-82
2024/01/20 12:26:56;;;;;;;50.90;35.83;;;;;;;;;;5078038;28;20354;-82
2024/01/20 12:29:21;;;;;;;32.03;23.95;;;;;;;;;;5078184;28;20101;-85
2024/01/20 12:31:47;;;;;;;27.00;22.80;;;;;;;;;;5076478;28;20606;-82
2024/01/20 12:34:12;;;;;;;29.55;25.60;;;;;;;;;;5075973;28;20453;-85
2024/01/20 12:36:37;;;;;;;19.38;16.73;;;;;;;;;;5077453;28;20119;-84
2024/01/20 12:39:05;;;;;;;15.90;14.20;;;;;;;;;;5077481;28;20443;-83
2024/01/20 12:41:31;;;;;;;46.67;29.98;;;;;;;;;;5076123;28;20081;-83
2024/01/20 12:43:56;;;;;;;63.50;39.65;;;;;;;;;;5076264;28;20103;-85
2024/01/20 12:46:22;;;;;;;46.78;34.80;;;;;;;;;;5076390;28;20029;-83
2024/01/20 12:48:47;;;;;;;38.85;30.20;;;;;;;;;;5077163;28;20028;-86
2024/01/20 12:51:12;;;;;;;15.15;13.05;;;;;;;;;;5078391;28;20423;-85
2024/01/20 12:53:38;;;;;;;31.85;27.58;;;;;;;;;;5077258;28;20048;-85
2024/01/20 12:56:04;;;;;;;12.98;11.68;;;;;;;;;;5079290;28;20084;-84
2024/01/20 12:58:30;;;;;;;13.30;10.45;;;;;;;;;;5077999;28;20042;-85
2024/01/20 13:00:56;;;;;;;19.08;17.08;;;;;;;;;;5079963;28;20048;-83
2024/01/20 13:03:21;;;;;;;40.90;30.80;;;;;;;;;;5085670;28;20024;-82
2024/01/20 13:05:46;;;;;;;10.85;9.77;;;;;;;;;;5093641;28;20024;-81
2024/01/20 13:08:12;;;;;;;49.85;37.67;;;;;;;;;;5086336;28;20028;-84
2024/01/20 13:10:37;;;;;;;33.20;27.52;;;;;;;;;;5078431;28;20020;-84
2024/01/20 13:13:02;;;;;;;39.63;34.78;;;;;;;;;;5078445;28;20037;-83
2024/01/20 13:15:28;;;;;;;18.45;16.55;;;;;;;;;;5074855;28;20039;-83
2024/01/20 13:17:53;;;;;;;35.30;27.85;;;;;;;;;;5075819;28;20031;-85
2024/01/20 13:20:19;;;;;;;12.90;11.50;;;;;;;;;;5075331;28;20028;-85
2024/01/20 13:22:45;;;;;;;11.80;10.60;;;;;;;;;;5076655;28;20474;-87
2024/01/20 13:25:11;;;;;;;13.50;12.10;;;;;;;;;;5077321;28;20068;-84
2024/01/20 13:27:37;;;;;;;11.82;10.63;;;;;;;;;;5076965;28;20020;-86
2024/01/20 13:30:04;;;;;;;11.88;10.55;;;;;;;;;;5077302;28;20427;-85
2024/01/20 13:32:29;;;;;;;10.02;9.07;;;;;;;;;;5076668;28;20043;-82
2024/01/20 13:34:54;;;;;;;5.90;5.30;;;;;;;;;;5076481;28;20032;-84
2024/01/20 13:37:20;;;;;;;16.13;14.43;;;;;;;;;;5074100;28;20028;-84
2024/01/20 13:39:45;;;;;;;16.10;14.40;;;;;;;;;;5077484;28;20017;-84
2024/01/20 13:42:11;;;;;;;10.07;9.07;;;;;;;;;;5076791;28;20020;-83
2024/01/20 13:44:36;;;;;;;29.35;26.17;;;;;;;;;;5076841;28;20119;-83
2024/01/20 13:47:02;;;;;;;17.00;15.48;;;;;;;;;;5077871;28;20039;-82
2024/01/20 13:49:27;;;;;;;13.38;12.18;;;;;;;;;;5077415;28;20406;-85
2024/01/20 13:51:52;;;;;;;9.35;8.48;;;;;;;;;;5060086;28;20308;-84
2024/01/20 13:54:18;;;;;;;11.48;10.38;;;;;;;;;;5080281;28;20079;-81
2024/01/20 13:56:43;;;;;;;13.50;12.15;;;;;;;;;;5082119;28;20032;-83
2024/01/20 13:59:09;;;;;;;13.57;12.27;;;;;;;;;;5080626;28;20028;-84
2024/01/20 14:01:34;;;;;;;16.70;14.75;;;;;;;;;;5079597;28;20157;-82
2024/01/20 14:04:00;;;;;;;14.02;12.60;;;;;;;;;;5080498;28;20348;-82
2024/01/20 14:06:25;;;;;;;9.13;8.25;;;;;;;;;;5080803;28;20074;-83
2024/01/20 14:08:51;;;;;;;7.03;6.43;;;;;;;;;;5080538;28;20027;-84
2024/01/20 14:11:16;;;;;;;8.00;7.30;;;;;;;;;;5081399;28;20021;-83